Algosea — CFN4229 — position and weather

sailwx.info

Track history (hours):
 
Tides and Currents Weather Stations Pressure Air Temp Water Temp Dewpoint Dewpoint Depression Visibility Wind Speed Wind Dir Waves Ship Positions

Algosea

Last reported at 2014-Nov-28 09:34 UTC. Time now 2014-Nov-28 09:45 UTC.
Position N 44°12' W 076°16'.

Length 144 m; draft 7.1 m.

Type: Ship (hazmat cat C). MMSI: 316006868.

Date/timePositionNaut miles runAvg speedWind from/ knotsBaromVisibWave heightAir tempDewpointWater temp
2014-Nov-28 09:34N 44°12' W 076°16'14 9.6
2014-Nov-28 08:08N 44°18' W 075°59'5 9.0
2014-Nov-28 07:34N 44°22' W 075°54'1111.1
2014-Nov-28 06:34N 44°31' W 075°46'62 6.8
2014-Nov-27 21:27N 45°04' W 074°32'8 9.5
2014-Nov-27 20:34N 45°09' W 074°23'1010.4
2014-Nov-27 19:34N 45°14' W 074°10'9 8.7
2014-Nov-27 18:33N 45°16' W 073°58'4 3.7
2014-Nov-27 17:34N 45°19' W 073°55'4 3.8
2014-Nov-27 16:34N 45°21' W 073°51'8 8.5
2014-Nov-27 15:33N 45°25' W 073°40'4 4.2
2014-Nov-27 14:33N 45°24' W 073°34'5 4.8
2014-Nov-27 13:34N 45°29' W 073°31'1 1.4
2014-Nov-27 12:33N 45°30' W 073°31'4 3.6
2014-Nov-27 11:33N 45°34' W 073°31'3 3.4
2014-Nov-27 10:34N 45°37' W 073°30'8 8.1
2014-Nov-27 09:34N 45°44' W 073°25'10 9.6
2014-Nov-27 08:34N 45°52' W 073°16'9 9.4
2014-Nov-27 07:33N 46°00' W 073°11'18 9.1
2014-Nov-27 05:31N 46°12' W 072°51'1010.1
2014-Nov-27 04:33N 46°16' W 072°38'9 8.8
2014-Nov-27 03:34N 46°22' W 072°29'9 9.1
2014-Nov-27 02:34N 46°26' W 072°17'9 8.7
2014-Nov-27 01:32N 46°33' W 072°09'  
2014-Nov-19 05:06N 44°42' W 063°39'0 0.0
2014-Nov-19 04:27N 44°42' W 063°39'0 0.0
2014-Nov-19 03:27N 44°42' W 063°39'0 0.0
2014-Nov-19 02:24N 44°42' W 063°39'0 0.1
2014-Nov-19 01:30N 44°42' W 063°39'0 0.0
2014-Nov-19 00:30N 44°42' W 063°39'0 0.0
2014-Nov-18 23:30N 44°42' W 063°39'0 0.0
2014-Nov-18 22:33N 44°42' W 063°39'0 0.0
2014-Nov-18 21:33N 44°42' W 063°39'0 0.0
2014-Nov-18 20:33N 44°42' W 063°39'0 0.0
2014-Nov-18 19:33N 44°42' W 063°39'0 0.0
2014-Nov-18 18:33N 44°42' W 063°39'0 0.0
2014-Nov-18 17:33N 44°42' W 063°39'0 0.0
2014-Nov-18 16:33N 44°42' W 063°39'0 0.0
2014-Nov-18 15:24N 44°42' W 063°39'0 0.0
2014-Nov-18 14:30N 44°42' W 063°39'0 0.0
2014-Nov-18 13:33N 44°42' W 063°39'0 0.0
2014-Nov-18 12:33N 44°42' W 063°39'0 0.0
2014-Nov-18 11:33N 44°42' W 063°39'0 0.0
2014-Nov-18 10:33N 44°42' W 063°39'  
Track history (hours):
 
Tides and Currents Weather Stations Pressure Air Temp Water Temp Dewpoint Dewpoint Depression Visibility Wind Speed Wind Dir Waves Ship Positions

Algosea

Last reported at 2014-Nov-28 09:34 UTC. Time now 2014-Nov-28 09:45 UTC.
Position N 44°12' W 076°16'.

Length 144 m; draft 7.1 m.

Type: Ship (hazmat cat C). MMSI: 316006868.

Date/timePositionNaut miles runAvg speedWind from/ knotsBaromVisibWave heightAir tempDewpointWater temp
2014-Nov-28 09:34N 44°12' W 076°16'14 9.6
2014-Nov-28 08:08N 44°18' W 075°59'5 9.0
2014-Nov-28 07:34N 44°22' W 075°54'1111.1
2014-Nov-28 06:34N 44°31' W 075°46'62 6.8
2014-Nov-27 21:27N 45°04' W 074°32'8 9.5
2014-Nov-27 20:34N 45°09' W 074°23'1010.4
2014-Nov-27 19:34N 45°14' W 074°10'9 8.7
2014-Nov-27 18:33N 45°16' W 073°58'4 3.7
2014-Nov-27 17:34N 45°19' W 073°55'4 3.8
2014-Nov-27 16:34N 45°21' W 073°51'8 8.5
2014-Nov-27 15:33N 45°25' W 073°40'4 4.2
2014-Nov-27 14:33N 45°24' W 073°34'5 4.8
2014-Nov-27 13:34N 45°29' W 073°31'1 1.4
2014-Nov-27 12:33N 45°30' W 073°31'4 3.6
2014-Nov-27 11:33N 45°34' W 073°31'3 3.4
2014-Nov-27 10:34N 45°37' W 073°30'8 8.1
2014-Nov-27 09:34N 45°44' W 073°25'10 9.6
2014-Nov-27 08:34N 45°52' W 073°16'9 9.4
2014-Nov-27 07:33N 46°00' W 073°11'18 9.1
2014-Nov-27 05:31N 46°12' W 072°51'1010.1
2014-Nov-27 04:33N 46°16' W 072°38'9 8.8
2014-Nov-27 03:34N 46°22' W 072°29'9 9.1
2014-Nov-27 02:34N 46°26' W 072°17'9 8.7
2014-Nov-27 01:32N 46°33' W 072°09'  
2014-Nov-19 05:06N 44°42' W 063°39'0 0.0
2014-Nov-19 04:27N 44°42' W 063°39'0 0.0
2014-Nov-19 03:27N 44°42' W 063°39'0 0.0
2014-Nov-19 02:24N 44°42' W 063°39'0 0.1
2014-Nov-19 01:30N 44°42' W 063°39'0 0.0
2014-Nov-19 00:30N 44°42' W 063°39'0 0.0
2014-Nov-18 23:30N 44°42' W 063°39'0 0.0
2014-Nov-18 22:33N 44°42' W 063°39'0 0.0
2014-Nov-18 21:33N 44°42' W 063°39'0 0.0
2014-Nov-18 20:33N 44°42' W 063°39'0 0.0
2014-Nov-18 19:33N 44°42' W 063°39'0 0.0
2014-Nov-18 18:33N 44°42' W 063°39'0 0.0
2014-Nov-18 17:33N 44°42' W 063°39'0 0.0
2014-Nov-18 16:33N 44°42' W 063°39'0 0.0
2014-Nov-18 15:24N 44°42' W 063°39'0 0.0
2014-Nov-18 14:30N 44°42' W 063°39'0 0.0
2014-Nov-18 13:33N 44°42' W 063°39'0 0.0
2014-Nov-18 12:33N 44°42' W 063°39'0 0.0
2014-Nov-18 11:33N 44°42' W 063°39'0 0.0
2014-Nov-18 10:33N 44°42' W 063°39'  

Dump ship's entire track history